sensor_id;sensor_type;location;lat;lon;timestamp;pressure;altitude;pressure_sealevel;temperature;humidity
59337;BME280;45115;52.002;4.686;2023-02-03T00:00:38;102566.56;;;8.37;100.00
59337;BME280;45115;52.002;4.686;2023-02-03T00:03:05;102565.53;;;8.38;100.00
59337;BME280;45115;52.002;4.686;2023-02-03T00:05:33;102573.06;;;8.41;100.00
59337;BME280;45115;52.002;4.686;2023-02-03T00:08:01;102588.50;;;8.44;100.00
59337;BME280;45115;52.002;4.686;2023-02-03T00:10:28;102584.88;;;8.38;100.00
59337;BME280;45115;52.002;4.686;2023-02-03T00:12:55;102580.75;;;8.43;100.00
59337;BME280;45115;52.002;4.686;2023-02-03T00:15:22;102579.97;;;8.42;100.00
59337;BME280;45115;52.002;4.686;2023-02-03T00:17:50;102579.56;;;8.38;100.00
59337;BME280;45115;52.002;4.686;2023-02-03T00:20:17;102568.19;;;8.31;100.00
59337;BME280;45115;52.002;4.686;2023-02-03T00:22:43;102577.81;;;8.19;100.00
59337;BME280;45115;52.002;4.686;2023-02-03T00:25:10;102594.91;;;8.09;100.00
59337;BME280;45115;52.002;4.686;2023-02-03T00:27:37;102586.19;;;8.02;100.00
59337;BME280;45115;52.002;4.686;2023-02-03T00:30:05;102590.44;;;7.96;100.00
59337;BME280;45115;52.002;4.686;2023-02-03T00:32:32;102592.69;;;8.00;100.00
59337;BME280;45115;52.002;4.686;2023-02-03T00:35:00;102595.09;;;8.08;100.00
59337;BME280;45115;52.002;4.686;2023-02-03T00:37:26;102593.47;;;8.14;100.00
59337;BME280;45115;52.002;4.686;2023-02-03T00:39:53;102600.56;;;8.20;100.00
59337;BME280;45115;52.002;4.686;2023-02-03T00:42:20;102610.53;;;8.24;100.00
59337;BME280;45115;52.002;4.686;2023-02-03T00:44:46;102613.78;;;8.27;100.00
59337;BME280;45115;52.002;4.686;2023-02-03T00:47:13;102600.94;;;8.30;100.00
59337;BME280;45115;52.002;4.686;2023-02-03T00:49:39;102601.16;;;8.29;100.00
59337;BME280;45115;52.002;4.686;2023-02-03T00:52:08;102600.75;;;8.32;100.00
59337;BME280;45115;52.002;4.686;2023-02-03T00:54:36;102589.59;;;8.30;100.00
59337;BME280;45115;52.002;4.686;2023-02-03T00:57:03;102574.09;;;8.33;100.00
59337;BME280;45115;52.002;4.686;2023-02-03T00:59:30;102585.72;;;8.32;100.00
59337;BME280;45115;52.002;4.686;2023-02-03T01:01:57;102596.88;;;8.34;100.00
59337;BME280;45115;52.002;4.686;2023-02-03T01:04:24;102590.56;;;8.35;100.00
59337;BME280;45115;52.002;4.686;2023-02-03T01:06:50;102586.09;;;8.36;100.00
59337;BME280;45115;52.002;4.686;2023-02-03T01:09:21;102587.91;;;8.35;100.00
59337;BME280;45115;52.002;4.686;2023-02-03T01:11:48;102570.00;;;8.37;100.00
59337;BME280;45115;52.002;4.686;2023-02-03T01:14:15;102590.34;;;8.37;100.00
59337;BME280;45115;52.002;4.686;2023-02-03T01:16:42;102588.31;;;8.39;100.00
59337;BME280;45115;52.002;4.686;2023-02-03T01:19:09;102578.94;;;8.43;100.00
59337;BME280;45115;52.002;4.686;2023-02-03T01:21:37;102566.53;;;8.44;100.00
59337;BME280;45115;52.002;4.686;2023-02-03T01:24:04;102563.06;;;8.43;100.00
59337;BME280;45115;52.002;4.686;2023-02-03T01:26:32;102575.47;;;8.43;100.00
59337;BME280;45115;52.002;4.686;2023-02-03T01:28:59;102572.81;;;8.49;100.00
59337;BME280;45115;52.002;4.686;2023-02-03T01:31:28;102572.81;;;8.49;100.00
59337;BME280;45115;52.002;4.686;2023-02-03T01:33:55;102538.63;;;8.48;100.00
59337;BME280;45115;52.002;4.686;2023-02-03T01:36:23;102521.13;;;8.47;100.00
59337;BME280;45115;52.002;4.686;2023-02-03T01:38:50;102520.09;;;8.48;100.00
59337;BME280;45115;52.002;4.686;2023-02-03T01:41:21;102523.19;;;8.45;100.00
59337;BME280;45115;52.002;4.686;2023-02-03T01:43:51;102532.75;;;8.46;100.00
59337;BME280;45115;52.002;4.686;2023-02-03T01:46:28;102533.75;;;8.51;100.00
59337;BME280;45115;52.002;4.686;2023-02-03T01:49:00;102533.13;;;8.56;100.00
59337;BME280;45115;52.002;4.686;2023-02-03T01:51:29;102533.53;;;8.53;100.00
59337;BME280;45115;52.002;4.686;2023-02-03T01:53:57;102543.06;;;8.61;100.00
59337;BME280;45115;52.002;4.686;2023-02-03T01:56:27;102550.41;;;8.59;100.00
59337;BME280;45115;52.002;4.686;2023-02-03T01:58:57;102544.75;;;8.55;100.00
59337;BME280;45115;52.002;4.686;2023-02-03T02:01:25;102542.09;;;8.55;100.00
59337;BME280;45115;52.002;4.686;2023-02-03T02:03:55;102524.16;;;8.57;100.00
59337;BME280;45115;52.002;4.686;2023-02-03T02:06:24;102520.72;;;8.50;100.00
59337;BME280;45115;52.002;4.686;2023-02-03T02:08:52;102512.16;;;8.55;100.00
59337;BME280;45115;52.002;4.686;2023-02-03T02:11:19;102507.28;;;8.51;100.00
59337;BME280;45115;52.002;4.686;2023-02-03T02:13:47;102524.81;;;8.53;100.00
59337;BME280;45115;52.002;4.686;2023-02-03T02:16:22;102518.88;;;8.57;100.00
59337;BME280;45115;52.002;4.686;2023-02-03T02:19:03;102507.50;;;8.57;100.00
59337;BME280;45115;52.002;4.686;2023-02-03T02:21:57;102509.69;;;8.60;100.00
59337;BME280;45115;52.002;4.686;2023-02-03T02:24:57;102509.13;;;8.58;100.00
59337;BME280;45115;52.002;4.686;2023-02-03T02:27:42;102513.59;;;8.57;100.00
59337;BME280;45115;52.002;4.686;2023-02-03T02:30:31;102511.56;;;8.59;100.00
59337;BME280;45115;52.002;4.686;2023-02-03T02:33:10;102516.03;;;8.59;100.00
59337;BME280;45115;52.002;4.686;2023-02-03T02:35:48;102522.50;;;8.63;100.00
59337;BME280;45115;52.002;4.686;2023-02-03T02:38:27;102534.31;;;8.67;100.00
59337;BME280;45115;52.002;4.686;2023-02-03T02:41:03;102530.84;;;8.67;100.00
59337;BME280;45115;52.002;4.686;2023-02-03T02:43:39;102527.34;;;8.73;100.00
59337;BME280;45115;52.002;4.686;2023-02-03T02:46:10;102526.91;;;8.76;100.00
59337;BME280;45115;52.002;4.686;2023-02-03T02:48:41;102534.25;;;8.74;100.00
59337;BME280;45115;52.002;4.686;2023-02-03T02:51:12;102519.56;;;8.78;100.00
59337;BME280;45115;52.002;4.686;2023-02-03T02:53:45;102509.81;;;8.79;100.00
59337;BME280;45115;52.002;4.686;2023-02-03T02:56:15;102513.91;;;8.74;100.00
59337;BME280;45115;52.002;4.686;2023-02-03T02:58:45;102514.47;;;8.76;100.00
59337;BME280;45115;52.002;4.686;2023-02-03T03:01:14;102513.69;;;8.76;100.00
59337;BME280;45115;52.002;4.686;2023-02-03T03:03:42;102510.03;;;8.70;100.00
59337;BME280;45115;52.002;4.686;2023-02-03T03:06:13;102489.31;;;8.67;100.00
59337;BME280;45115;52.002;4.686;2023-02-03T03:08:45;102495.00;;;8.71;100.00
59337;BME280;45115;52.002;4.686;2023-02-03T03:11:13;102473.81;;;8.71;100.00
59337;BME280;45115;52.002;4.686;2023-02-03T03:13:43;102468.91;;;8.74;100.00
59337;BME280;45115;52.002;4.686;2023-02-03T03:16:13;102463.03;;;8.72;100.00
59337;BME280;45115;52.002;4.686;2023-02-03T03:18:44;102482.13;;;8.74;100.00
59337;BME280;45115;52.002;4.686;2023-02-03T03:21:16;102465.69;;;8.72;100.00
59337;BME280;45115;52.002;4.686;2023-02-03T03:23:47;102475.59;;;8.77;100.00
59337;BME280;45115;52.002;4.686;2023-02-03T03:26:21;102473.38;;;8.74;100.00
59337;BME280;45115;52.002;4.686;2023-02-03T03:28:57;102490.09;;;8.74;100.00
59337;BME280;45115;52.002;4.686;2023-02-03T03:31:29;102492.31;;;8.77;100.00
59337;BME280;45115;52.002;4.686;2023-02-03T03:33:57;102501.50;;;8.75;100.00
59337;BME280;45115;52.002;4.686;2023-02-03T03:36:27;102500.25;;;8.77;100.00
59337;BME280;45115;52.002;4.686;2023-02-03T03:38:58;102509.44;;;8.75;100.00
59337;BME280;45115;52.002;4.686;2023-02-03T03:41:35;102503.13;;;8.69;100.00
59337;BME280;45115;52.002;4.686;2023-02-03T03:44:05;102521.00;;;8.74;100.00
59337;BME280;45115;52.002;4.686;2023-02-03T03:46:39;102504.53;;;8.72;100.00
59337;BME280;45115;52.002;4.686;2023-02-03T03:49:11;102496.59;;;8.72;100.00
59337;BME280;45115;52.002;4.686;2023-02-03T03:51:42;102515.34;;;8.70;100.00
59337;BME280;45115;52.002;4.686;2023-02-03T03:54:10;102509.63;;;8.73;100.00
59337;BME280;45115;52.002;4.686;2023-02-03T03:56:40;102515.72;;;8.74;100.00
59337;BME280;45115;52.002;4.686;2023-02-03T03:59:11;102518.59;;;8.72;100.00
59337;BME280;45115;52.002;4.686;2023-02-03T04:01:40;102519.59;;;8.71;100.00
59337;BME280;45115;52.002;4.686;2023-02-03T04:04:10;102527.53;;;8.71;100.00
59337;BME280;45115;52.002;4.686;2023-02-03T04:06:38;102520.66;;;8.63;100.00
59337;BME280;45115;52.002;4.686;2023-02-03T04:09:05;102522.69;;;8.68;100.00
59337;BME280;45115;52.002;4.686;2023-02-03T04:11:32;102502.97;;;8.64;100.00
59337;BME280;45115;52.002;4.686;2023-02-03T04:14:16;102516.38;;;8.69;100.00
59337;BME280;45115;52.002;4.686;2023-02-03T04:16:43;102521.28;;;8.66;100.00
59337;BME280;45115;52.002;4.686;2023-02-03T04:19:11;102513.94;;;8.68;100.00
59337;BME280;45115;52.002;4.686;2023-02-03T04:21:37;102522.50;;;8.70;100.00
59337;BME280;45115;52.002;4.686;2023-02-03T04:24:05;102507.41;;;8.70;100.00
59337;BME280;45115;52.002;4.686;2023-02-03T04:26:31;102530.59;;;8.75;100.00
59337;BME280;45115;52.002;4.686;2023-02-03T04:28:58;102528.38;;;8.72;100.00
59337;BME280;45115;52.002;4.686;2023-02-03T04:31:24;102512.09;;;8.68;100.00
59337;BME280;45115;52.002;4.686;2023-02-03T04:33:51;102500.13;;;8.66;100.00
59337;BME280;45115;52.002;4.686;2023-02-03T04:36:19;102512.53;;;8.65;100.00
59337;BME280;45115;52.002;4.686;2023-02-03T04:38:47;102513.56;;;8.64;100.00
59337;BME280;45115;52.002;4.686;2023-02-03T04:41:14;102521.06;;;8.67;100.00
59337;BME280;45115;52.002;4.686;2023-02-03T04:43:40;102493.41;;;8.63;100.00
59337;BME280;45115;52.002;4.686;2023-02-03T04:46:07;102502.22;;;8.57;100.00
59337;BME280;45115;52.002;4.686;2023-02-03T04:48:34;102508.84;;;8.66;100.00
59337;BME280;45115;52.002;4.686;2023-02-03T04:51:02;102514.75;;;8.68;100.00
59337;BME280;45115;52.002;4.686;2023-02-03T04:53:31;102519.44;;;8.66;100.00
59337;BME280;45115;52.002;4.686;2023-02-03T04:55:57;102528.19;;;8.67;100.00
59337;BME280;45115;52.002;4.686;2023-02-03T04:58:25;102525.94;;;8.70;100.00
59337;BME280;45115;52.002;4.686;2023-02-03T05:00:53;102519.22;;;8.68;100.00
59337;BME280;45115;52.002;4.686;2023-02-03T05:03:20;102519.22;;;8.68;100.00
59337;BME280;45115;52.002;4.686;2023-02-03T05:05:48;102525.34;;;8.68;100.00
59337;BME280;45115;52.002;4.686;2023-02-03T05:08:15;102529.81;;;8.68;100.00
59337;BME280;45115;52.002;4.686;2023-02-03T05:10:43;102524.97;;;8.64;100.00
59337;BME280;45115;52.002;4.686;2023-02-03T05:13:09;102519.06;;;8.62;100.00
59337;BME280;45115;52.002;4.686;2023-02-03T05:15:36;102509.50;;;8.61;100.00
59337;BME280;45115;52.002;4.686;2023-02-03T05:18:03;102525.75;;;8.65;100.00
59337;BME280;45115;52.002;4.686;2023-02-03T05:20:29;102519.88;;;8.63;100.00
59337;BME280;45115;52.002;4.686;2023-02-03T05:22:56;102520.28;;;8.60;100.00
59337;BME280;45115;52.002;4.686;2023-02-03T05:25:23;102532.28;;;8.62;100.00
59337;BME280;45115;52.002;4.686;2023-02-03T05:27:51;102519.69;;;8.58;100.00
59337;BME280;45115;52.002;4.686;2023-02-03T05:30:18;102542.06;;;8.62;100.00
59337;BME280;45115;52.002;4.686;2023-02-03T05:32:44;102527.44;;;8.59;100.00
59337;BME280;45115;52.002;4.686;2023-02-03T05:35:11;102537.59;;;8.56;100.00
59337;BME280;45115;52.002;4.686;2023-02-03T05:37:43;102531.72;;;8.54;100.00
59337;BME280;45115;52.002;4.686;2023-02-03T05:40:10;102519.31;;;8.47;100.00
59337;BME280;45115;52.002;4.686;2023-02-03T05:42:56;102527.88;;;8.43;100.00
59337;BME280;45115;52.002;4.686;2023-02-03T05:45:23;102527.66;;;8.44;100.00
59337;BME280;45115;52.002;4.686;2023-02-03T05:47:49;102532.75;;;8.46;100.00
59337;BME280;45115;52.002;4.686;2023-02-03T05:50:16;102517.47;;;8.48;100.00
59337;BME280;45115;52.002;4.686;2023-02-03T05:52:43;102525.41;;;8.48;100.00
59337;BME280;45115;52.002;4.686;2023-02-03T05:55:10;102520.31;;;8.53;100.00
59337;BME280;45115;52.002;4.686;2023-02-03T05:57:37;102518.69;;;8.52;100.00
59337;BME280;45115;52.002;4.686;2023-02-03T06:00:06;102521.72;;;8.56;100.00
59337;BME280;45115;52.002;4.686;2023-02-03T06:02:37;102516.84;;;8.59;100.00
59337;BME280;45115;52.002;4.686;2023-02-03T06:05:04;102545.72;;;8.61;100.00
59337;BME280;45115;52.002;4.686;2023-02-03T06:07:31;102530.25;;;8.64;100.00
59337;BME280;45115;52.002;4.686;2023-02-03T06:09:57;102538.19;;;8.64;100.00
59337;BME280;45115;52.002;4.686;2023-02-03T06:12:24;102542.66;;;8.64;100.00
59337;BME280;45115;52.002;4.686;2023-02-03T06:14:53;102528.19;;;8.67;100.00
59337;BME280;45115;52.002;4.686;2023-02-03T06:17:22;102531.03;;;8.65;100.00
59337;BME280;45115;52.002;4.686;2023-02-03T06:19:48;102534.91;;;8.62;100.00
59337;BME280;45115;52.002;4.686;2023-02-03T06:22:15;102538.81;;;8.60;100.00
59337;BME280;45115;52.002;4.686;2023-02-03T06:24:42;102527.19;;;8.61;100.00
59337;BME280;45115;52.002;4.686;2023-02-03T06:27:10;102521.53;;;8.57;100.00
59337;BME280;45115;52.002;4.686;2023-02-03T06:29:37;102523.75;;;8.60;100.00
59337;BME280;45115;52.002;4.686;2023-02-03T06:32:04;102505.06;;;8.55;100.00
59337;BME280;45115;52.002;4.686;2023-02-03T06:34:32;102525.59;;;8.53;100.00
59337;BME280;45115;52.002;4.686;2023-02-03T06:37:01;102538.41;;;8.49;100.00
59337;BME280;45115;52.002;4.686;2023-02-03T06:39:28;102545.16;;;8.45;100.00
59337;BME280;45115;52.002;4.686;2023-02-03T06:41:55;102541.06;;;8.49;100.00
59337;BME280;45115;52.002;4.686;2023-02-03T06:44:21;102539.25;;;8.50;100.00
59337;BME280;45115;52.002;4.686;2023-02-03T06:46:48;102554.69;;;8.60;100.00
59337;BME280;45115;52.002;4.686;2023-02-03T06:49:15;102558.16;;;8.60;100.00
59337;BME280;45115;52.002;4.686;2023-02-03T06:51:44;102564.84;;;8.63;100.00
59337;BME280;45115;52.002;4.686;2023-02-03T06:54:12;102561.75;;;8.66;100.00
59337;BME280;45115;52.002;4.686;2023-02-03T06:56:39;102567.06;;;8.66;100.00
59337;BME280;45115;52.002;4.686;2023-02-03T06:59:05;102576.47;;;8.62;100.00
59337;BME280;45115;52.002;4.686;2023-02-03T07:01:33;102588.03;;;8.68;100.00
59337;BME280;45115;52.002;4.686;2023-02-03T07:04:00;102588.63;;;8.70;100.00
59337;BME280;45115;52.002;4.686;2023-02-03T07:06:27;102581.09;;;8.73;100.00
59337;BME280;45115;52.002;4.686;2023-02-03T07:08:56;102588.19;;;8.73;100.00
59337;BME280;45115;52.002;4.686;2023-02-03T07:11:24;102591.66;;;8.73;100.00
59337;BME280;45115;52.002;4.686;2023-02-03T07:13:51;102573.16;;;8.67;100.00
59337;BME280;45115;52.002;4.686;2023-02-03T07:16:18;102582.13;;;8.72;100.00
59337;BME280;45115;52.002;4.686;2023-02-03T07:18:45;102591.22;;;8.76;100.00
59337;BME280;45115;52.002;4.686;2023-02-03T07:21:13;102589.00;;;8.80;100.00
59337;BME280;45115;52.002;4.686;2023-02-03T07:23:39;102596.50;;;8.83;100.00
59337;BME280;45115;52.002;4.686;2023-02-03T07:26:09;102606.88;;;8.85;100.00
59337;BME280;45115;52.002;4.686;2023-02-03T07:28:36;102591.00;;;8.85;100.00
59337;BME280;45115;52.002;4.686;2023-02-03T07:31:03;102581.00;;;8.87;100.00
59337;BME280;45115;52.002;4.686;2023-02-03T07:33:32;102584.88;;;8.84;100.00
59337;BME280;45115;52.002;4.686;2023-02-03T07:35:59;102592.78;;;8.91;100.00
59337;BME280;45115;52.002;4.686;2023-02-03T07:38:27;102591.34;;;8.95;100.00
59337;BME280;45115;52.002;4.686;2023-02-03T07:40:54;102586.63;;;8.97;100.00
59337;BME280;45115;52.002;4.686;2023-02-03T07:43:22;102583.56;;;9.00;100.00
59337;BME280;45115;52.002;4.686;2023-02-03T07:45:49;102585.63;;;8.98;100.00
59337;BME280;45115;52.002;4.686;2023-02-03T07:48:16;102592.09;;;9.02;100.00
59337;BME280;45115;52.002;4.686;2023-02-03T07:50:43;102603.72;;;9.01;100.00
59337;BME280;45115;52.002;4.686;2023-02-03T07:53:10;102600.28;;;9.01;100.00
59337;BME280;45115;52.002;4.686;2023-02-03T07:55:37;102603.50;;;9.03;100.00
59337;BME280;45115;52.002;4.686;2023-02-03T07:58:03;102597.19;;;9.04;100.00
59337;BME280;45115;52.002;4.686;2023-02-03T08:00:31;102584.41;;;9.01;100.00
59337;BME280;45115;52.002;4.686;2023-02-03T08:02:58;102574.59;;;9.01;100.00
59337;BME280;45115;52.002;4.686;2023-02-03T08:05:25;102600.84;;;9.10;100.00
59337;BME280;45115;52.002;4.686;2023-02-03T08:07:52;102586.78;;;9.09;100.00
59337;BME280;45115;52.002;4.686;2023-02-03T08:10:18;102604.66;;;9.14;100.00
59337;BME280;45115;52.002;4.686;2023-02-03T08:12:45;102606.06;;;9.16;100.00
59337;BME280;45115;52.002;4.686;2023-02-03T08:15:13;102604.03;;;9.19;100.00
59337;BME280;45115;52.002;4.686;2023-02-03T08:17:41;102605.44;;;9.21;100.00
59337;BME280;45115;52.002;4.686;2023-02-03T08:20:09;102619.28;;;9.23;100.00
59337;BME280;45115;52.002;4.686;2023-02-03T08:22:36;102623.53;;;9.24;100.00
59337;BME280;45115;52.002;4.686;2023-02-03T08:25:03;102632.97;;;9.20;100.00
59337;BME280;45115;52.002;4.686;2023-02-03T08:27:30;102636.56;;;9.26;100.00
59337;BME280;45115;52.002;4.686;2023-02-03T08:29:58;102645.13;;;9.28;100.00
59337;BME280;45115;52.002;4.686;2023-02-03T08:32:25;102626.16;;;9.31;100.00
59337;BME280;45115;52.002;4.686;2023-02-03T08:34:56;102621.28;;;9.28;100.00
59337;BME280;45115;52.002;4.686;2023-02-03T08:37:23;102627.00;;;9.25;100.00
59337;BME280;45115;52.002;4.686;2023-02-03T08:39:50;102621.28;;;9.28;100.00
59337;BME280;45115;52.002;4.686;2023-02-03T08:42:17;102629.81;;;9.30;100.00
59337;BME280;45115;52.002;4.686;2023-02-03T08:44:43;102631.66;;;9.29;100.00
59337;BME280;45115;52.002;4.686;2023-02-03T08:47:10;102633.69;;;9.34;100.00
59337;BME280;45115;52.002;4.686;2023-02-03T08:49:38;102644.09;;;9.29;100.00
59337;BME280;45115;52.002;4.686;2023-02-03T08:52:09;102642.41;;;9.35;100.00
59337;BME280;45115;52.002;4.686;2023-02-03T08:54:36;102628.78;;;9.31;100.00
59337;BME280;45115;52.002;4.686;2023-02-03T08:57:03;102623.69;;;9.29;100.00
59337;BME280;45115;52.002;4.686;2023-02-03T08:59:30;102633.06;;;9.32;100.00
59337;BME280;45115;52.002;4.686;2023-02-03T09:02:00;102650.38;;;9.35;100.00
59337;BME280;45115;52.002;4.686;2023-02-03T09:04:28;102649.38;;;9.36;100.00
59337;BME280;45115;52.002;4.686;2023-02-03T09:06:54;102646.25;;;9.39;100.00
59337;BME280;45115;52.002;4.686;2023-02-03T09:09:22;102657.91;;;9.38;100.00
59337;BME280;45115;52.002;4.686;2023-02-03T09:11:51;102661.13;;;9.40;100.00
59337;BME280;45115;52.002;4.686;2023-02-03T09:14:18;102664.56;;;9.47;100.00
59337;BME280;45115;52.002;4.686;2023-02-03T09:16:44;102670.03;;;9.52;100.00
59337;BME280;45115;52.002;4.686;2023-02-03T09:19:11;102691.06;;;9.47;100.00
59337;BME280;45115;52.002;4.686;2023-02-03T09:21:38;102687.16;;;9.50;100.00
59337;BME280;45115;52.002;4.686;2023-02-03T09:24:06;102673.31;;;9.48;100.00
59337;BME280;45115;52.002;4.686;2023-02-03T09:26:34;102681.44;;;9.53;100.00
59337;BME280;45115;52.002;4.686;2023-02-03T09:29:01;102680.81;;;9.57;100.00
59337;BME280;45115;52.002;4.686;2023-02-03T09:31:27;102685.03;;;9.65;100.00
59337;BME280;45115;52.002;4.686;2023-02-03T09:33:54;102688.91;;;9.63;100.00
59337;BME280;45115;52.002;4.686;2023-02-03T09:36:21;102695.59;;;9.72;100.00
59337;BME280;45115;52.002;4.686;2023-02-03T09:38:47;102691.34;;;9.64;100.00
59337;BME280;45115;52.002;4.686;2023-02-03T09:41:23;102686.63;;;9.66;100.00
59337;BME280;45115;52.002;4.686;2023-02-03T09:43:58;102690.03;;;9.74;100.00
59337;BME280;45115;52.002;4.686;2023-02-03T09:46:31;102682.34;;;9.72;100.00
59337;BME280;45115;52.002;4.686;2023-02-03T09:49:05;102682.94;;;9.93;100.00
59337;BME280;45115;52.002;4.686;2023-02-03T09:51:36;102690.81;;;10.06;100.00
59337;BME280;45115;52.002;4.686;2023-02-03T09:54:12;102686.69;;;10.10;100.00
59337;BME280;45115;52.002;4.686;2023-02-03T09:56:42;102696.22;;;10.18;100.00
59337;BME280;45115;52.002;4.686;2023-02-03T09:59:15;102704.81;;;10.14;100.00
59337;BME280;45115;52.002;4.686;2023-02-03T10:01:46;102694.19;;;10.14;100.00
59337;BME280;45115;52.002;4.686;2023-02-03T10:04:23;102692.31;;;10.21;100.00
59337;BME280;45115;52.002;4.686;2023-02-03T10:06:57;102708.50;;;10.13;100.00
59337;BME280;45115;52.002;4.686;2023-02-03T10:09:42;102714.16;;;10.16;100.00
59337;BME280;45115;52.002;4.686;2023-02-03T10:12:25;102701.88;;;10.22;100.00
59337;BME280;45115;52.002;4.686;2023-02-03T10:15:14;102714.94;;;10.23;100.00
59337;BME280;45115;52.002;4.686;2023-02-03T10:17:47;102703.34;;;10.18;100.00
59337;BME280;45115;52.002;4.686;2023-02-03T10:20:22;102719.72;;;10.33;100.00
59337;BME280;45115;52.002;4.686;2023-02-03T10:22:53;102711.97;;;10.32;100.00
59337;BME280;45115;52.002;4.686;2023-02-03T10:25:26;102724.63;;;10.36;100.00
59337;BME280;45115;52.002;4.686;2023-02-03T10:27:59;102726.59;;;10.41;100.00
59337;BME280;45115;52.002;4.686;2023-02-03T10:30:32;102707.06;;;10.35;100.00
59337;BME280;45115;52.002;4.686;2023-02-03T10:33:10;102724.63;;;10.36;100.00
59337;BME280;45115;52.002;4.686;2023-02-03T10:35:42;102723.16;;;10.41;100.00
59337;BME280;45115;52.002;4.686;2023-02-03T10:38:18;102723.72;;;10.43;100.00
59337;BME280;45115;52.002;4.686;2023-02-03T10:40:47;102723.34;;;10.46;100.00
59337;BME280;45115;52.002;4.686;2023-02-03T10:43:13;102724.28;;;10.52;100.00
59337;BME280;45115;52.002;4.686;2023-02-03T10:45:59;102744.25;;;10.54;100.00
59337;BME280;45115;52.002;4.686;2023-02-03T10:48:26;102738.75;;;10.56;100.00
59337;BME280;45115;52.002;4.686;2023-02-03T10:50:53;102753.41;;;10.58;100.00
59337;BME280;45115;52.002;4.686;2023-02-03T10:53:23;102757.63;;;10.66;100.00
59337;BME280;45115;52.002;4.686;2023-02-03T10:55:59;102761.53;;;10.63;100.00
59337;BME280;45115;52.002;4.686;2023-02-03T10:58:28;102763.50;;;10.68;100.00
59337;BME280;45115;52.002;4.686;2023-02-03T11:00:57;102751.28;;;10.67;100.00
59337;BME280;45115;52.002;4.686;2023-02-03T11:03:31;102751.34;;;10.60;100.00
59337;BME280;45115;52.002;4.686;2023-02-03T11:06:09;102755.34;;;10.70;100.00
59337;BME280;45115;52.002;4.686;2023-02-03T11:08:38;102751.84;;;10.69;100.00
59337;BME280;45115;52.002;4.686;2023-02-03T11:11:07;102742.28;;;10.68;100.00
59337;BME280;45115;52.002;4.686;2023-02-03T11:13:34;102767.28;;;10.79;100.00
59337;BME280;45115;52.002;4.686;2023-02-03T11:16:03;102761.09;;;10.85;100.00
59337;BME280;45115;52.002;4.686;2023-02-03T11:18:51;102751.63;;;10.71;100.00
59337;BME280;45115;52.002;4.686;2023-02-03T11:21:20;102750.03;;;10.70;100.00
59337;BME280;45115;52.002;4.686;2023-02-03T11:23:51;102755.34;;;10.70;100.00
59337;BME280;45115;52.002;4.686;2023-02-03T11:26:21;102757.56;;;10.73;100.00
59337;BME280;45115;52.002;4.686;2023-02-03T11:28:50;102753.63;;;10.57;100.00
59337;BME280;45115;52.002;4.686;2023-02-03T11:31:22;102730.19;;;10.54;100.00
59337;BME280;45115;52.002;4.686;2023-02-03T11:33:54;102764.03;;;10.58;100.00
59337;BME280;45115;52.002;4.686;2023-02-03T11:36:24;102770.53;;;10.62;100.00
59337;BME280;45115;52.002;4.686;2023-02-03T11:38:51;102766.63;;;10.65;100.00
59337;BME280;45115;52.002;4.686;2023-02-03T11:41:19;102757.53;;;10.54;100.00
59337;BME280;45115;52.002;4.686;2023-02-03T11:43:47;102772.06;;;10.52;100.00
59337;BME280;45115;52.002;4.686;2023-02-03T11:46:14;102765.28;;;10.56;100.00
59337;BME280;45115;52.002;4.686;2023-02-03T11:48:48;102772.66;;;10.54;100.00
59337;BME280;45115;52.002;4.686;2023-02-03T11:51:28;102749.69;;;10.41;100.00
59337;BME280;45115;52.002;4.686;2023-02-03T11:54:11;102762.47;;;10.50;100.00
59337;BME280;45115;52.002;4.686;2023-02-03T11:56:55;102759.75;;;10.57;100.00
59337;BME280;45115;52.002;4.686;2023-02-03T12:05:35;102746.03;;;10.60;100.00
59337;BME280;45115;52.002;4.686;2023-02-03T12:08:20;102761.94;;;10.60;100.00
59337;BME280;45115;52.002;4.686;2023-02-03T12:11:01;102764.59;;;10.60;100.00
59337;BME280;45115;52.002;4.686;2023-02-03T12:14:00;102741.59;;;10.54;100.00
59337;BME280;45115;52.002;4.686;2023-02-03T12:19:44;102758.88;;;10.63;100.00
59337;BME280;45115;52.002;4.686;2023-02-03T12:22:22;102751.28;;;10.67;100.00
59337;BME280;45115;52.002;4.686;2023-02-03T12:24:59;102762.72;;;10.68;100.00
59337;BME280;45115;52.002;4.686;2023-02-03T12:27:40;102771.56;;;10.61;100.00
59337;BME280;45115;52.002;4.686;2023-02-03T12:30:12;102759.44;;;10.66;100.00
59337;BME280;45115;52.002;4.686;2023-02-03T12:32:44;102766.16;;;10.68;100.00
59337;BME280;45115;52.002;4.686;2023-02-03T12:35:17;102756.72;;;10.72;100.00
59337;BME280;45115;52.002;4.686;2023-02-03T12:37:49;102760.56;;;10.76;100.00
59337;BME280;45115;52.002;4.686;2023-02-03T12:40:27;102763.75;;;10.85;100.00
59337;BME280;45115;52.002;4.686;2023-02-03T12:42:59;102752.41;;;10.78;100.00
59337;BME280;45115;52.002;4.686;2023-02-03T12:45:31;102757.19;;;10.88;100.00
59337;BME280;45115;52.002;4.686;2023-02-03T12:48:01;102765.72;;;10.90;100.00
59337;BME280;45115;52.002;4.686;2023-02-03T12:50:33;102750.91;;;10.82;100.00
59337;BME280;45115;52.002;4.686;2023-02-03T12:53:06;102774.38;;;10.85;100.00
59337;BME280;45115;52.002;4.686;2023-02-03T12:55:40;102775.91;;;10.93;100.00
59337;BME280;45115;52.002;4.686;2023-02-03T12:58:12;102779.59;;;10.92;100.00
59337;BME280;45115;52.002;4.686;2023-02-03T13:00:40;102782.69;;;10.89;100.00
59337;BME280;45115;52.002;4.686;2023-02-03T13:03:18;102777.91;;;10.79;100.00
59337;BME280;45115;52.002;4.686;2023-02-03T13:05:50;102780.03;;;10.70;100.00
59337;BME280;45115;52.002;4.686;2023-02-03T13:08:24;102779.44;;;10.68;100.00
59337;BME280;45115;52.002;4.686;2023-02-03T13:11:02;102771.09;;;10.65;100.00